ADDS TAF Board (Experimental) INFO

IDs: Format: Expanded Condensed

Updated at: 0120 UTC 22 Dec 2014

KCLT - Charlotte/Douglas In, NC, US

Issued at 2340 UTC 21 Dec 2014
Time0052Z22/02Z22/03Z22/04Z22/05Z22/06Z22/07Z22/08Z22/09Z22/10Z22/11Z22/12Z22/13Z22/14Z
TypeOBSPRVLPRVLPRVLPRVLPRVLPRVLPRVLPRVLPRVLPRVLPRVLPRVLPRVL
VIS10>6>666665555555
CIG404545353519197777777
CoverOVCOVCOVCOVCOVCOVCOVCOVCOVCOVCOVCOVCOVCOVC
FltCat--VFRVFRVFRVFRMVFRMVFRIFRIFRIFRIFRIFRIFRIFR
WX-------RA-RA-RA-RA-RA-RA-RA-RA-RA-RA-RA
WDir6070706060404030303030303030
WSpd75577889999999
WGst----------------------------
R05/23
XWnd-1-2-2-1-1113333333
HWnd75577889999999
R18/36
XWnd65566665555555
HWnd-3-1-1-3-3-6-6-7-7-7-7-7-7-7
Raw TAF
KCLT 212340Z 2200/2224 07005KT P6SM OVC045
  FM220400 06007KT 6SM -RA OVC035
  FM220600 04008KT 6SM -RA OVC019
  FM220800 03009KT 5SM -RA OVC007
  FM221500 03008KT 6SM -DZ OVC004
  FM221800 04006KT P6SM OVC007


Raw METAR
KCLT 220052Z 06007KT 10SM OVC040 09/02 A3020 RMK AO2 SLP227 T00890022

TAF Board Legend

Hazard VFR MVFR IFR LIFR
Visibility (sm) >5 3≤X≤5 1≤X<3 <1
Ceiling (100 ft) >30 10≤X≤30 5≤X<10 <5
Wind Speed (kt) <10 10≤X<20 20≤X<30 ≥30
Wind Gust (kt) <15 15≤X<25 25≤X<35 ≥35
Weather No Wx Reported VCTS,-TS,-FZRA TS,FZRA +TS,+FZRA


Page loaded:  01:20 UTC  |   05:20 PM Pacific  |   06:20 PM Mountain  |   07:20 PM Central  |   08:20 PM Eastern

 

ADVISORIES

FORECASTS

FORECASTS

OBSERVATIONS

USER TOOLS

ABOUT US